Terminal Aerodrome Forecast
Issued by NWS Charleston, WV

Current Version | Previous Version | Graphics & Text | Print | Product List | Glossary On
Versions: 1 2 3 4 5 6 7 8 9 10 11 12 13 14 15 16 17 18 19 20 21 22 23 24 25 26 27 28 29
196
FTUS41 KRLX 200549
TAFEKN
TAF
KEKN 200549Z 2006/2106 28011G18KT P6SM OVC035
     FM201100 27007KT P6SM SCT035
     FM201600 25005KT P6SM FEW250
     FM210500 19003KT P6SM FEW250=

USA.gov is the U.S. government's official web portal to all federal, state and local government web resources and services.